sensor_id;sensor_type;location;lat;lon;timestamp;P1;durP1;ratioP1;P2;durP2;ratioP2
71083;SDS011;58741;52.672;13.548;2023-12-28T00:01:47;2.55;;;1.70;;
71083;SDS011;58741;52.672;13.548;2023-12-28T00:04:15;3.35;;;1.80;;
71083;SDS011;58741;52.672;13.548;2023-12-28T00:06:42;2.85;;;1.90;;
71083;SDS011;58741;52.672;13.548;2023-12-28T00:09:08;4.65;;;2.15;;
71083;SDS011;58741;52.672;13.548;2023-12-28T00:11:38;3.83;;;2.17;;
71083;SDS011;58741;52.672;13.548;2023-12-28T00:14:05;2.90;;;1.88;;
71083;SDS011;58741;52.672;13.548;2023-12-28T00:16:32;4.28;;;1.75;;
71083;SDS011;58741;52.672;13.548;2023-12-28T00:19:00;4.10;;;1.80;;
71083;SDS011;58741;52.672;13.548;2023-12-28T00:21:29;4.40;;;1.90;;
71083;SDS011;58741;52.672;13.548;2023-12-28T00:23:58;5.47;;;1.73;;
71083;SDS011;58741;52.672;13.548;2023-12-28T00:26:25;4.90;;;2.17;;
71083;SDS011;58741;52.672;13.548;2023-12-28T00:29:01;3.78;;;1.77;;
71083;SDS011;58741;52.672;13.548;2023-12-28T00:31:27;6.68;;;1.98;;
71083;SDS011;58741;52.672;13.548;2023-12-28T00:33:54;2.30;;;1.05;;
71083;SDS011;58741;52.672;13.548;2023-12-28T00:36:22;2.40;;;1.60;;
71083;SDS011;58741;52.672;13.548;2023-12-28T00:38:49;3.45;;;1.60;;
71083;SDS011;58741;52.672;13.548;2023-12-28T00:41:16;3.10;;;1.70;;
71083;SDS011;58741;52.672;13.548;2023-12-28T00:43:43;5.22;;;1.92;;
71083;SDS011;58741;52.672;13.548;2023-12-28T00:46:09;2.83;;;1.75;;
71083;SDS011;58741;52.672;13.548;2023-12-28T00:48:36;2.72;;;1.50;;
71083;SDS011;58741;52.672;13.548;2023-12-28T00:51:03;2.70;;;1.67;;
71083;SDS011;58741;52.672;13.548;2023-12-28T00:53:30;2.63;;;1.48;;
71083;SDS011;58741;52.672;13.548;2023-12-28T00:55:57;2.10;;;1.23;;
71083;SDS011;58741;52.672;13.548;2023-12-28T00:58:24;3.05;;;1.65;;
71083;SDS011;58741;52.672;13.548;2023-12-28T01:00:50;2.83;;;1.60;;
71083;SDS011;58741;52.672;13.548;2023-12-28T01:03:19;4.28;;;1.75;;
71083;SDS011;58741;52.672;13.548;2023-12-28T01:05:46;2.53;;;1.42;;
71083;SDS011;58741;52.672;13.548;2023-12-28T01:08:16;2.35;;;1.80;;
71083;SDS011;58741;52.672;13.548;2023-12-28T01:10:44;5.55;;;1.90;;
71083;SDS011;58741;52.672;13.548;2023-12-28T01:13:10;3.22;;;1.45;;
71083;SDS011;58741;52.672;13.548;2023-12-28T01:15:37;3.35;;;1.42;;
71083;SDS011;58741;52.672;13.548;2023-12-28T01:18:04;2.58;;;1.35;;
71083;SDS011;58741;52.672;13.548;2023-12-28T01:20:31;2.33;;;1.10;;
71083;SDS011;58741;52.672;13.548;2023-12-28T01:22:57;2.25;;;1.10;;
71083;SDS011;58741;52.672;13.548;2023-12-28T01:25:24;3.03;;;1.63;;
71083;SDS011;58741;52.672;13.548;2023-12-28T01:27:51;1.35;;;1.05;;
71083;SDS011;58741;52.672;13.548;2023-12-28T01:30:18;3.15;;;1.30;;
71083;SDS011;58741;52.672;13.548;2023-12-28T01:32:45;1.67;;;1.08;;
71083;SDS011;58741;52.672;13.548;2023-12-28T01:35:12;1.92;;;1.10;;
71083;SDS011;58741;52.672;13.548;2023-12-28T01:37:39;1.63;;;1.00;;
71083;SDS011;58741;52.672;13.548;2023-12-28T01:40:06;2.47;;;1.08;;
71083;SDS011;58741;52.672;13.548;2023-12-28T01:42:33;1.70;;;1.15;;
71083;SDS011;58741;52.672;13.548;2023-12-28T01:45:01;2.63;;;1.15;;
71083;SDS011;58741;52.672;13.548;2023-12-28T01:47:28;3.03;;;1.08;;
71083;SDS011;58741;52.672;13.548;2023-12-28T01:49:55;1.85;;;0.77;;
71083;SDS011;58741;52.672;13.548;2023-12-28T01:52:24;1.95;;;1.35;;
71083;SDS011;58741;52.672;13.548;2023-12-28T01:54:51;1.40;;;1.10;;
71083;SDS011;58741;52.672;13.548;2023-12-28T01:57:18;4.88;;;1.25;;
71083;SDS011;58741;52.672;13.548;2023-12-28T01:59:45;3.10;;;1.35;;
71083;SDS011;58741;52.672;13.548;2023-12-28T02:02:11;2.00;;;1.13;;
71083;SDS011;58741;52.672;13.548;2023-12-28T02:04:39;1.33;;;1.02;;
71083;SDS011;58741;52.672;13.548;2023-12-28T02:07:06;1.27;;;0.82;;
71083;SDS011;58741;52.672;13.548;2023-12-28T02:09:34;2.03;;;1.13;;
71083;SDS011;58741;52.672;13.548;2023-12-28T02:12:01;1.92;;;1.23;;
71083;SDS011;58741;52.672;13.548;2023-12-28T02:14:29;1.55;;;1.20;;
71083;SDS011;58741;52.672;13.548;2023-12-28T02:17:13;1.38;;;1.00;;
71083;SDS011;58741;52.672;13.548;2023-12-28T02:20:01;1.67;;;0.95;;
71083;SDS011;58741;52.672;13.548;2023-12-28T02:22:32;1.02;;;0.93;;
71083;SDS011;58741;52.672;13.548;2023-12-28T02:25:04;3.35;;;1.10;;
71083;SDS011;58741;52.672;13.548;2023-12-28T02:27:37;2.42;;;1.30;;
71083;SDS011;58741;52.672;13.548;2023-12-28T02:30:06;2.55;;;1.20;;
71083;SDS011;58741;52.672;13.548;2023-12-28T02:35:23;5.30;;;0.85;;
71083;SDS011;58741;52.672;13.548;2023-12-28T02:37:55;1.10;;;0.85;;
71083;SDS011;58741;52.672;13.548;2023-12-28T02:40:25;1.50;;;0.93;;
71083;SDS011;58741;52.672;13.548;2023-12-28T02:42:53;1.23;;;0.80;;
71083;SDS011;58741;52.672;13.548;2023-12-28T02:45:20;1.35;;;0.77;;
71083;SDS011;58741;52.672;13.548;2023-12-28T02:47:47;2.00;;;0.90;;
71083;SDS011;58741;52.672;13.548;2023-12-28T02:50:14;2.38;;;0.93;;
71083;SDS011;58741;52.672;13.548;2023-12-28T02:52:40;1.00;;;0.70;;
71083;SDS011;58741;52.672;13.548;2023-12-28T02:55:07;0.70;;;0.70;;
71083;SDS011;58741;52.672;13.548;2023-12-28T02:57:34;1.05;;;0.85;;
71083;SDS011;58741;52.672;13.548;2023-12-28T03:00:04;1.10;;;0.88;;
71083;SDS011;58741;52.672;13.548;2023-12-28T03:02:31;0.98;;;0.88;;
71083;SDS011;58741;52.672;13.548;2023-12-28T03:04:58;1.40;;;0.80;;
71083;SDS011;58741;52.672;13.548;2023-12-28T03:07:25;0.77;;;0.63;;
71083;SDS011;58741;52.672;13.548;2023-12-28T03:09:52;0.63;;;0.60;;
71083;SDS011;58741;52.672;13.548;2023-12-28T03:12:19;0.98;;;0.55;;
71083;SDS011;58741;52.672;13.548;2023-12-28T03:14:45;0.60;;;0.60;;
71083;SDS011;58741;52.672;13.548;2023-12-28T03:17:12;1.20;;;0.60;;
71083;SDS011;58741;52.672;13.548;2023-12-28T03:19:39;1.70;;;0.82;;
71083;SDS011;58741;52.672;13.548;2023-12-28T03:22:06;1.35;;;0.70;;
71083;SDS011;58741;52.672;13.548;2023-12-28T03:24:33;1.10;;;0.60;;
71083;SDS011;58741;52.672;13.548;2023-12-28T03:27:00;0.52;;;0.50;;
71083;SDS011;58741;52.672;13.548;2023-12-28T03:29:27;0.73;;;0.55;;
71083;SDS011;58741;52.672;13.548;2023-12-28T03:31:54;3.53;;;0.80;;
71083;SDS011;58741;52.672;13.548;2023-12-28T03:34:21;1.30;;;0.70;;
71083;SDS011;58741;52.672;13.548;2023-12-28T03:36:49;0.57;;;0.50;;
71083;SDS011;58741;52.672;13.548;2023-12-28T03:39:16;0.88;;;0.50;;
71083;SDS011;58741;52.672;13.548;2023-12-28T03:41:43;0.45;;;0.40;;
71083;SDS011;58741;52.672;13.548;2023-12-28T03:44:10;0.90;;;0.65;;
71083;SDS011;58741;52.672;13.548;2023-12-28T03:46:37;1.95;;;0.60;;
71083;SDS011;58741;52.672;13.548;2023-12-28T03:49:03;0.35;;;0.35;;
71083;SDS011;58741;52.672;13.548;2023-12-28T03:51:31;0.82;;;0.57;;
71083;SDS011;58741;52.672;13.548;2023-12-28T03:53:58;0.77;;;0.47;;
71083;SDS011;58741;52.672;13.548;2023-12-28T03:56:26;0.47;;;0.40;;
71083;SDS011;58741;52.672;13.548;2023-12-28T03:58:53;0.35;;;0.35;;
71083;SDS011;58741;52.672;13.548;2023-12-28T04:01:21;0.63;;;0.60;;
71083;SDS011;58741;52.672;13.548;2023-12-28T04:03:49;2.83;;;0.50;;
71083;SDS011;58741;52.672;13.548;2023-12-28T04:06:15;0.43;;;0.43;;
71083;SDS011;58741;52.672;13.548;2023-12-28T04:08:42;0.73;;;0.52;;
71083;SDS011;58741;52.672;13.548;2023-12-28T04:11:09;1.80;;;0.70;;
71083;SDS011;58741;52.672;13.548;2023-12-28T04:13:36;0.80;;;0.50;;
71083;SDS011;58741;52.672;13.548;2023-12-28T04:16:03;0.73;;;0.60;;
71083;SDS011;58741;52.672;13.548;2023-12-28T04:18:30;0.30;;;0.30;;
71083;SDS011;58741;52.672;13.548;2023-12-28T04:20:58;0.63;;;0.40;;
71083;SDS011;58741;52.672;13.548;2023-12-28T04:23:25;0.32;;;0.30;;
71083;SDS011;58741;52.672;13.548;2023-12-28T04:25:51;1.38;;;0.50;;
71083;SDS011;58741;52.672;13.548;2023-12-28T04:28:18;0.47;;;0.40;;
71083;SDS011;58741;52.672;13.548;2023-12-28T04:30:45;0.68;;;0.40;;
71083;SDS011;58741;52.672;13.548;2023-12-28T04:33:12;0.40;;;0.40;;
71083;SDS011;58741;52.672;13.548;2023-12-28T04:35:42;0.35;;;0.35;;
71083;SDS011;58741;52.672;13.548;2023-12-28T04:38:09;0.88;;;0.50;;
71083;SDS011;58741;52.672;13.548;2023-12-28T04:40:36;0.73;;;0.60;;
71083;SDS011;58741;52.672;13.548;2023-12-28T04:43:02;0.30;;;0.30;;
71083;SDS011;58741;52.672;13.548;2023-12-28T04:45:29;0.60;;;0.40;;
71083;SDS011;58741;52.672;13.548;2023-12-28T04:47:57;0.40;;;0.30;;
71083;SDS011;58741;52.672;13.548;2023-12-28T04:50:24;0.43;;;0.43;;
71083;SDS011;58741;52.672;13.548;2023-12-28T04:52:51;0.70;;;0.47;;
71083;SDS011;58741;52.672;13.548;2023-12-28T04:55:17;0.65;;;0.50;;
71083;SDS011;58741;52.672;13.548;2023-12-28T04:57:44;1.00;;;0.50;;
71083;SDS011;58741;52.672;13.548;2023-12-28T05:00:11;0.38;;;0.38;;
71083;SDS011;58741;52.672;13.548;2023-12-28T05:02:38;1.58;;;0.40;;
71083;SDS011;58741;52.672;13.548;2023-12-28T05:05:05;0.73;;;0.40;;
71083;SDS011;58741;52.672;13.548;2023-12-28T05:07:32;2.05;;;0.65;;
71083;SDS011;58741;52.672;13.548;2023-12-28T05:09:59;0.85;;;0.47;;
71083;SDS011;58741;52.672;13.548;2023-12-28T05:12:26;0.73;;;0.50;;
71083;SDS011;58741;52.672;13.548;2023-12-28T05:14:56;0.82;;;0.52;;
71083;SDS011;58741;52.672;13.548;2023-12-28T05:17:22;0.35;;;0.35;;
71083;SDS011;58741;52.672;13.548;2023-12-28T05:19:49;0.50;;;0.50;;
71083;SDS011;58741;52.672;13.548;2023-12-28T05:22:16;0.50;;;0.30;;
71083;SDS011;58741;52.672;13.548;2023-12-28T05:24:42;1.15;;;0.55;;
71083;SDS011;58741;52.672;13.548;2023-12-28T05:27:09;0.57;;;0.45;;
71083;SDS011;58741;52.672;13.548;2023-12-28T05:29:36;0.60;;;0.40;;
71083;SDS011;58741;52.672;13.548;2023-12-28T05:32:02;0.30;;;0.30;;
71083;SDS011;58741;52.672;13.548;2023-12-28T05:34:29;0.47;;;0.43;;
71083;SDS011;58741;52.672;13.548;2023-12-28T05:36:57;0.68;;;0.45;;
71083;SDS011;58741;52.672;13.548;2023-12-28T05:39:23;0.70;;;0.50;;
71083;SDS011;58741;52.672;13.548;2023-12-28T05:41:50;0.55;;;0.40;;
71083;SDS011;58741;52.672;13.548;2023-12-28T05:44:17;0.45;;;0.40;;
71083;SDS011;58741;52.672;13.548;2023-12-28T05:46:43;0.90;;;0.43;;
71083;SDS011;58741;52.672;13.548;2023-12-28T05:49:10;2.40;;;0.52;;
71083;SDS011;58741;52.672;13.548;2023-12-28T05:51:40;2.17;;;0.45;;
71083;SDS011;58741;52.672;13.548;2023-12-28T05:54:08;0.50;;;0.38;;
71083;SDS011;58741;52.672;13.548;2023-12-28T05:56:35;2.03;;;0.68;;
71083;SDS011;58741;52.672;13.548;2023-12-28T05:59:02;0.55;;;0.50;;
71083;SDS011;58741;52.672;13.548;2023-12-28T06:01:28;1.13;;;0.70;;
71083;SDS011;58741;52.672;13.548;2023-12-28T06:03:55;0.40;;;0.40;;
71083;SDS011;58741;52.672;13.548;2023-12-28T06:06:22;0.73;;;0.60;;
71083;SDS011;58741;52.672;13.548;2023-12-28T06:08:49;0.50;;;0.40;;
71083;SDS011;58741;52.672;13.548;2023-12-28T06:11:15;0.60;;;0.40;;
71083;SDS011;58741;52.672;13.548;2023-12-28T06:13:42;0.40;;;0.40;;
71083;SDS011;58741;52.672;13.548;2023-12-28T06:16:08;0.40;;;0.40;;
71083;SDS011;58741;52.672;13.548;2023-12-28T06:18:35;0.70;;;0.40;;
71083;SDS011;58741;52.672;13.548;2023-12-28T06:21:02;0.77;;;0.43;;
71083;SDS011;58741;52.672;13.548;2023-12-28T06:23:32;0.50;;;0.50;;
71083;SDS011;58741;52.672;13.548;2023-12-28T06:26:03;1.50;;;0.50;;
71083;SDS011;58741;52.672;13.548;2023-12-28T06:28:30;0.47;;;0.43;;
71083;SDS011;58741;52.672;13.548;2023-12-28T06:30:57;1.02;;;0.60;;
71083;SDS011;58741;52.672;13.548;2023-12-28T06:33:27;0.55;;;0.55;;
71083;SDS011;58741;52.672;13.548;2023-12-28T06:35:55;0.47;;;0.40;;
71083;SDS011;58741;52.672;13.548;2023-12-28T06:38:24;0.70;;;0.45;;
71083;SDS011;58741;52.672;13.548;2023-12-28T06:40:51;0.52;;;0.40;;
71083;SDS011;58741;52.672;13.548;2023-12-28T06:43:18;0.95;;;0.60;;
71083;SDS011;58741;52.672;13.548;2023-12-28T06:45:45;0.40;;;0.40;;
71083;SDS011;58741;52.672;13.548;2023-12-28T06:48:12;0.65;;;0.50;;
71083;SDS011;58741;52.672;13.548;2023-12-28T06:50:38;0.52;;;0.35;;
71083;SDS011;58741;52.672;13.548;2023-12-28T06:53:05;0.30;;;0.30;;
71083;SDS011;58741;52.672;13.548;2023-12-28T06:55:32;0.75;;;0.57;;
71083;SDS011;58741;52.672;13.548;2023-12-28T06:58:00;0.85;;;0.50;;
71083;SDS011;58741;52.672;13.548;2023-12-28T07:00:28;0.95;;;0.47;;
71083;SDS011;58741;52.672;13.548;2023-12-28T07:02:54;0.57;;;0.40;;
71083;SDS011;58741;52.672;13.548;2023-12-28T07:05:21;0.40;;;0.30;;
71083;SDS011;58741;52.672;13.548;2023-12-28T07:07:48;0.38;;;0.38;;
71083;SDS011;58741;52.672;13.548;2023-12-28T07:10:14;0.30;;;0.30;;
71083;SDS011;58741;52.672;13.548;2023-12-28T07:12:41;0.82;;;0.60;;
71083;SDS011;58741;52.672;13.548;2023-12-28T07:15:08;0.57;;;0.40;;
71083;SDS011;58741;52.672;13.548;2023-12-28T07:17:39;0.40;;;0.40;;
71083;SDS011;58741;52.672;13.548;2023-12-28T07:20:07;1.85;;;0.77;;
71083;SDS011;58741;52.672;13.548;2023-12-28T07:22:37;0.70;;;0.50;;
71083;SDS011;58741;52.672;13.548;2023-12-28T07:25:07;0.57;;;0.57;;
71083;SDS011;58741;52.672;13.548;2023-12-28T07:27:34;0.60;;;0.50;;
71083;SDS011;58741;52.672;13.548;2023-12-28T07:30:02;0.90;;;0.70;;
71083;SDS011;58741;52.672;13.548;2023-12-28T07:32:30;0.70;;;0.60;;
71083;SDS011;58741;52.672;13.548;2023-12-28T07:34:56;1.15;;;0.63;;
71083;SDS011;58741;52.672;13.548;2023-12-28T07:37:24;0.30;;;0.30;;
71083;SDS011;58741;52.672;13.548;2023-12-28T07:39:52;1.00;;;0.68;;
71083;SDS011;58741;52.672;13.548;2023-12-28T07:42:19;1.20;;;0.68;;
71083;SDS011;58741;52.672;13.548;2023-12-28T07:44:46;0.25;;;0.22;;
71083;SDS011;58741;52.672;13.548;2023-12-28T07:47:13;1.20;;;0.52;;
71083;SDS011;58741;52.672;13.548;2023-12-28T07:49:40;0.20;;;0.20;;
71083;SDS011;58741;52.672;13.548;2023-12-28T07:52:07;0.65;;;0.50;;
71083;SDS011;58741;52.672;13.548;2023-12-28T07:54:34;1.65;;;0.75;;
71083;SDS011;58741;52.672;13.548;2023-12-28T07:57:01;0.98;;;0.50;;
71083;SDS011;58741;52.672;13.548;2023-12-28T07:59:28;0.60;;;0.35;;
71083;SDS011;58741;52.672;13.548;2023-12-28T08:01:54;0.68;;;0.43;;
71083;SDS011;58741;52.672;13.548;2023-12-28T08:04:22;0.47;;;0.47;;
71083;SDS011;58741;52.672;13.548;2023-12-28T08:06:49;0.80;;;0.60;;
71083;SDS011;58741;52.672;13.548;2023-12-28T08:09:16;1.02;;;0.45;;
71083;SDS011;58741;52.672;13.548;2023-12-28T08:11:42;2.15;;;0.70;;
71083;SDS011;58741;52.672;13.548;2023-12-28T08:14:09;0.52;;;0.45;;
71083;SDS011;58741;52.672;13.548;2023-12-28T08:16:36;1.17;;;0.70;;
71083;SDS011;58741;52.672;13.548;2023-12-28T08:19:02;1.02;;;0.57;;
71083;SDS011;58741;52.672;13.548;2023-12-28T08:21:29;3.22;;;0.45;;
71083;SDS011;58741;52.672;13.548;2023-12-28T08:23:56;0.40;;;0.40;;
71083;SDS011;58741;52.672;13.548;2023-12-28T08:26:23;1.23;;;0.60;;
71083;SDS011;58741;52.672;13.548;2023-12-28T08:28:50;0.70;;;0.50;;
71083;SDS011;58741;52.672;13.548;2023-12-28T08:31:16;0.43;;;0.40;;
71083;SDS011;58741;52.672;13.548;2023-12-28T08:33:44;0.98;;;0.50;;
71083;SDS011;58741;52.672;13.548;2023-12-28T08:36:11;0.90;;;0.52;;
71083;SDS011;58741;52.672;13.548;2023-12-28T08:38:38;1.38;;;0.47;;
71083;SDS011;58741;52.672;13.548;2023-12-28T08:41:04;1.85;;;1.02;;
71083;SDS011;58741;52.672;13.548;2023-12-28T08:43:35;0.98;;;0.60;;
71083;SDS011;58741;52.672;13.548;2023-12-28T08:46:02;0.70;;;0.65;;
71083;SDS011;58741;52.672;13.548;2023-12-28T08:48:29;1.67;;;0.70;;
71083;SDS011;58741;52.672;13.548;2023-12-28T08:50:56;1.38;;;0.70;;
71083;SDS011;58741;52.672;13.548;2023-12-28T08:53:23;1.20;;;0.70;;
71083;SDS011;58741;52.672;13.548;2023-12-28T08:55:49;1.27;;;0.77;;
71083;SDS011;58741;52.672;13.548;2023-12-28T08:58:16;0.82;;;0.50;;
71083;SDS011;58741;52.672;13.548;2023-12-28T09:00:43;0.93;;;0.50;;
71083;SDS011;58741;52.672;13.548;2023-12-28T09:03:11;0.77;;;0.40;;
71083;SDS011;58741;52.672;13.548;2023-12-28T09:05:38;0.22;;;0.22;;
71083;SDS011;58741;52.672;13.548;2023-12-28T09:08:05;0.57;;;0.45;;
71083;SDS011;58741;52.672;13.548;2023-12-28T09:10:32;1.50;;;0.60;;
71083;SDS011;58741;52.672;13.548;2023-12-28T09:12:59;0.60;;;0.60;;
71083;SDS011;58741;52.672;13.548;2023-12-28T09:15:26;0.68;;;0.60;;
71083;SDS011;58741;52.672;13.548;2023-12-28T09:17:53;3.03;;;1.00;;
71083;SDS011;58741;52.672;13.548;2023-12-28T09:20:21;1.15;;;0.63;;
71083;SDS011;58741;52.672;13.548;2023-12-28T09:22:48;0.50;;;0.50;;
71083;SDS011;58741;52.672;13.548;2023-12-28T09:25:19;0.85;;;0.60;;
71083;SDS011;58741;52.672;13.548;2023-12-28T09:27:46;1.45;;;0.70;;
71083;SDS011;58741;52.672;13.548;2023-12-28T09:30:13;0.80;;;0.70;;
71083;SDS011;58741;52.672;13.548;2023-12-28T09:32:40;4.28;;;1.10;;
71083;SDS011;58741;52.672;13.548;2023-12-28T09:35:06;2.42;;;0.77;;
71083;SDS011;58741;52.672;13.548;2023-12-28T09:37:33;1.50;;;0.90;;
71083;SDS011;58741;52.672;13.548;2023-12-28T09:40:00;1.00;;;0.50;;
71083;SDS011;58741;52.672;13.548;2023-12-28T09:42:29;1.25;;;0.70;;
71083;SDS011;58741;52.672;13.548;2023-12-28T09:45:04;0.85;;;0.60;;
71083;SDS011;58741;52.672;13.548;2023-12-28T09:47:32;0.73;;;0.50;;
71083;SDS011;58741;52.672;13.548;2023-12-28T09:50:00;0.70;;;0.50;;
71083;SDS011;58741;52.672;13.548;2023-12-28T09:52:27;0.40;;;0.32;;
71083;SDS011;58741;52.672;13.548;2023-12-28T09:54:54;0.60;;;0.60;;
71083;SDS011;58741;52.672;13.548;2023-12-28T09:57:20;3.88;;;0.63;;
71083;SDS011;58741;52.672;13.548;2023-12-28T09:59:48;0.93;;;0.60;;
71083;SDS011;58741;52.672;13.548;2023-12-28T10:02:14;1.65;;;0.68;;
71083;SDS011;58741;52.672;13.548;2023-12-28T10:04:41;3.03;;;0.70;;
71083;SDS011;58741;52.672;13.548;2023-12-28T10:07:08;1.05;;;0.65;;
71083;SDS011;58741;52.672;13.548;2023-12-28T10:09:35;1.92;;;0.98;;
71083;SDS011;58741;52.672;13.548;2023-12-28T10:12:02;1.13;;;0.50;;
71083;SDS011;58741;52.672;13.548;2023-12-28T10:14:30;1.10;;;0.60;;
71083;SDS011;58741;52.672;13.548;2023-12-28T10:16:57;0.32;;;0.32;;
71083;SDS011;58741;52.672;13.548;2023-12-28T10:19:23;0.80;;;0.60;;
71083;SDS011;58741;52.672;13.548;2023-12-28T10:21:50;1.20;;;0.70;;
71083;SDS011;58741;52.672;13.548;2023-12-28T10:24:17;0.93;;;0.68;;
71083;SDS011;58741;52.672;13.548;2023-12-28T10:26:44;0.60;;;0.57;;
71083;SDS011;58741;52.672;13.548;2023-12-28T10:29:12;0.50;;;0.47;;
71083;SDS011;58741;52.672;13.548;2023-12-28T10:31:43;0.40;;;0.40;;
71083;SDS011;58741;52.672;13.548;2023-12-28T10:34:10;0.38;;;0.30;;
71083;SDS011;58741;52.672;13.548;2023-12-28T10:36:38;0.60;;;0.57;;
71083;SDS011;58741;52.672;13.548;2023-12-28T10:39:07;2.30;;;0.95;;
71083;SDS011;58741;52.672;13.548;2023-12-28T10:41:37;2.05;;;0.82;;
71083;SDS011;58741;52.672;13.548;2023-12-28T10:44:07;2.25;;;1.15;;
71083;SDS011;58741;52.672;13.548;2023-12-28T10:46:39;1.23;;;0.90;;
71083;SDS011;58741;52.672;13.548;2023-12-28T10:49:10;0.63;;;0.60;;
71083;SDS011;58741;52.672;13.548;2023-12-28T10:51:41;1.92;;;0.82;;
71083;SDS011;58741;52.672;13.548;2023-12-28T10:57:09;3.28;;;0.80;;
71083;SDS011;58741;52.672;13.548;2023-12-28T11:00:07;1.48;;;0.82;;
71083;SDS011;58741;52.672;13.548;2023-12-28T11:02:38;1.58;;;0.82;;
71083;SDS011;58741;52.672;13.548;2023-12-28T11:05:08;0.65;;;0.65;;
71083;SDS011;58741;52.672;13.548;2023-12-28T11:07:35;1.95;;;1.02;;
71083;SDS011;58741;52.672;13.548;2023-12-28T11:10:04;0.50;;;0.38;;
71083;SDS011;58741;52.672;13.548;2023-12-28T11:12:33;0.85;;;0.55;;
71083;SDS011;58741;52.672;13.548;2023-12-28T11:15:01;0.70;;;0.60;;
71083;SDS011;58741;52.672;13.548;2023-12-28T11:17:31;1.35;;;0.70;;
71083;SDS011;58741;52.672;13.548;2023-12-28T11:19:59;0.88;;;0.47;;
71083;SDS011;58741;52.672;13.548;2023-12-28T11:22:26;1.20;;;0.60;;
71083;SDS011;58741;52.672;13.548;2023-12-28T11:24:54;1.58;;;0.90;;
71083;SDS011;58741;52.672;13.548;2023-12-28T11:27:22;1.60;;;0.82;;
71083;SDS011;58741;52.672;13.548;2023-12-28T11:29:49;1.27;;;0.88;;
71083;SDS011;58741;52.672;13.548;2023-12-28T11:32:19;2.10;;;0.70;;
71083;SDS011;58741;52.672;13.548;2023-12-28T11:34:46;0.98;;;0.63;;
71083;SDS011;58741;52.672;13.548;2023-12-28T11:37:23;1.52;;;0.82;;
71083;SDS011;58741;52.672;13.548;2023-12-28T11:39:52;4.82;;;1.13;;
71083;SDS011;58741;52.672;13.548;2023-12-28T11:42:21;1.15;;;0.75;;
71083;SDS011;58741;52.672;13.548;2023-12-28T11:44:53;1.00;;;0.70;;
71083;SDS011;58741;52.672;13.548;2023-12-28T11:47:22;0.93;;;0.80;;
71083;SDS011;58741;52.672;13.548;2023-12-28T11:49:50;1.50;;;0.85;;
71083;SDS011;58741;52.672;13.548;2023-12-28T11:52:25;2.95;;;1.17;;
71083;SDS011;58741;52.672;13.548;2023-12-28T11:54:53;0.90;;;0.60;;
71083;SDS011;58741;52.672;13.548;2023-12-28T11:57:20;0.75;;;0.68;;
71083;SDS011;58741;52.672;13.548;2023-12-28T11:59:52;1.50;;;0.90;;
71083;SDS011;58741;52.672;13.548;2023-12-28T12:02:20;0.80;;;0.57;;
71083;SDS011;58741;52.672;13.548;2023-12-28T12:04:47;1.23;;;0.80;;
71083;SDS011;58741;52.672;13.548;2023-12-28T12:07:15;0.80;;;0.60;;
71083;SDS011;58741;52.672;13.548;2023-12-28T12:09:43;1.20;;;0.63;;
71083;SDS011;58741;52.672;13.548;2023-12-28T12:12:10;0.95;;;0.77;;
71083;SDS011;58741;52.672;13.548;2023-12-28T12:14:37;0.60;;;0.60;;
71083;SDS011;58741;52.672;13.548;2023-12-28T12:17:04;3.50;;;0.68;;
71083;SDS011;58741;52.672;13.548;2023-12-28T12:19:30;1.05;;;0.60;;
71083;SDS011;58741;52.672;13.548;2023-12-28T12:21:58;0.65;;;0.50;;
71083;SDS011;58741;52.672;13.548;2023-12-28T12:24:25;1.83;;;0.60;;
71083;SDS011;58741;52.672;13.548;2023-12-28T12:26:52;1.00;;;0.68;;
71083;SDS011;58741;52.672;13.548;2023-12-28T12:29:19;5.65;;;0.68;;
71083;SDS011;58741;52.672;13.548;2023-12-28T12:31:53;0.82;;;0.73;;
71083;SDS011;58741;52.672;13.548;2023-12-28T12:34:20;1.25;;;0.47;;
71083;SDS011;58741;52.672;13.548;2023-12-28T12:36:47;2.00;;;0.90;;
71083;SDS011;58741;52.672;13.548;2023-12-28T12:39:18;0.55;;;0.40;;
71083;SDS011;58741;52.672;13.548;2023-12-28T12:41:45;0.77;;;0.60;;
71083;SDS011;58741;52.672;13.548;2023-12-28T12:44:13;0.80;;;0.70;;
71083;SDS011;58741;52.672;13.548;2023-12-28T12:46:40;4.25;;;0.50;;
71083;SDS011;58741;52.672;13.548;2023-12-28T12:49:06;0.85;;;0.70;;
71083;SDS011;58741;52.672;13.548;2023-12-28T12:51:33;0.82;;;0.50;;
71083;SDS011;58741;52.672;13.548;2023-12-28T12:54:02;1.15;;;0.50;;
71083;SDS011;58741;52.672;13.548;2023-12-28T12:56:29;2.10;;;0.75;;
71083;SDS011;58741;52.672;13.548;2023-12-28T12:58:57;0.82;;;0.70;;
71083;SDS011;58741;52.672;13.548;2023-12-28T13:01:24;1.48;;;0.95;;
71083;SDS011;58741;52.672;13.548;2023-12-28T13:03:51;1.42;;;0.50;;
71083;SDS011;58741;52.672;13.548;2023-12-28T13:06:18;1.08;;;0.68;;
71083;SDS011;58741;52.672;13.548;2023-12-28T13:08:49;4.03;;;0.75;;
71083;SDS011;58741;52.672;13.548;2023-12-28T13:11:15;0.38;;;0.38;;
71083;SDS011;58741;52.672;13.548;2023-12-28T13:13:42;0.63;;;0.60;;
71083;SDS011;58741;52.672;13.548;2023-12-28T13:16:09;1.35;;;0.60;;
71083;SDS011;58741;52.672;13.548;2023-12-28T13:18:36;1.50;;;0.73;;
71083;SDS011;58741;52.672;13.548;2023-12-28T13:21:02;0.75;;;0.65;;
71083;SDS011;58741;52.672;13.548;2023-12-28T13:23:29;1.52;;;0.90;;
71083;SDS011;58741;52.672;13.548;2023-12-28T13:25:56;1.30;;;0.60;;
71083;SDS011;58741;52.672;13.548;2023-12-28T13:28:23;1.67;;;0.65;;
71083;SDS011;58741;52.672;13.548;2023-12-28T13:30:50;0.70;;;0.68;;
71083;SDS011;58741;52.672;13.548;2023-12-28T13:33:17;1.13;;;0.63;;
71083;SDS011;58741;52.672;13.548;2023-12-28T13:35:44;1.48;;;0.70;;
71083;SDS011;58741;52.672;13.548;2023-12-28T13:38:11;0.95;;;0.55;;
71083;SDS011;58741;52.672;13.548;2023-12-28T13:40:37;0.73;;;0.60;;
71083;SDS011;58741;52.672;13.548;2023-12-28T13:43:04;0.90;;;0.65;;
71083;SDS011;58741;52.672;13.548;2023-12-28T13:45:31;0.73;;;0.60;;
71083;SDS011;58741;52.672;13.548;2023-12-28T13:47:58;1.45;;;0.70;;
71083;SDS011;58741;52.672;13.548;2023-12-28T13:50:25;3.10;;;0.70;;
71083;SDS011;58741;52.672;13.548;2023-12-28T13:52:51;0.82;;;0.47;;
71083;SDS011;58741;52.672;13.548;2023-12-28T13:55:18;3.20;;;0.47;;
71083;SDS011;58741;52.672;13.548;2023-12-28T13:57:45;0.73;;;0.60;;
71083;SDS011;58741;52.672;13.548;2023-12-28T14:00:12;3.13;;;0.50;;
71083;SDS011;58741;52.672;13.548;2023-12-28T14:02:40;0.45;;;0.40;;
71083;SDS011;58741;52.672;13.548;2023-12-28T14:05:07;0.85;;;0.50;;
71083;SDS011;58741;52.672;13.548;2023-12-28T14:07:34;0.75;;;0.45;;
71083;SDS011;58741;52.672;13.548;2023-12-28T14:10:01;1.27;;;1.00;;
71083;SDS011;58741;52.672;13.548;2023-12-28T14:12:28;1.13;;;0.45;;
71083;SDS011;58741;52.672;13.548;2023-12-28T14:14:55;0.95;;;0.82;;
71083;SDS011;58741;52.672;13.548;2023-12-28T14:17:21;0.50;;;0.50;;
71083;SDS011;58741;52.672;13.548;2023-12-28T14:19:48;0.30;;;0.30;;
71083;SDS011;58741;52.672;13.548;2023-12-28T14:22:15;1.38;;;0.88;;
71083;SDS011;58741;52.672;13.548;2023-12-28T14:24:42;0.70;;;0.70;;
71083;SDS011;58741;52.672;13.548;2023-12-28T14:27:09;1.25;;;0.80;;
71083;SDS011;58741;52.672;13.548;2023-12-28T14:29:37;1.15;;;0.77;;
71083;SDS011;58741;52.672;13.548;2023-12-28T14:32:04;0.80;;;0.55;;
71083;SDS011;58741;52.672;13.548;2023-12-28T14:34:32;0.50;;;0.50;;
71083;SDS011;58741;52.672;13.548;2023-12-28T14:36:59;0.63;;;0.55;;
71083;SDS011;58741;52.672;13.548;2023-12-28T14:39:26;0.93;;;0.43;;
71083;SDS011;58741;52.672;13.548;2023-12-28T14:41:53;0.82;;;0.50;;